Volcan De Teneguia — ECLA — position and weather

sailwx.info

Track history (hours):
 
Tides and Currents Weather Stations Pressure Air Temp Water Temp Dewpoint Dewpoint Depression Visibility Wind Speed Wind Dir Waves Ship Positions

Volcan De Teneguia

Last reported at 2017-Jun-26 04:20 UTC. Time now 2017-Jun-28 19:32 UTC.
Position N 35°47' W 007°16'.

Length 145 m; draft 5.2 m.

Type: Cargo ship. MMSI: 225317000.

Date/timePositionNaut miles runAvg speedWind from/ knotsBaromVisibWave heightAir tempDewpointWater temp
2017-Jun-26 04:20N 35°47' W 007°16'513.2
2017-Jun-26 03:58N 35°44' W 007°20'612.7
2017-Jun-26 03:30N 35°40' W 007°25'612.8
2017-Jun-26 03:00N 35°35' W 007°31'612.7
2017-Jun-26 02:30N 35°31' W 007°36'712.7
2017-Jun-26 01:58N 35°26' W 007°42'612.7
2017-Jun-26 01:28N 35°22' W 007°48'1212.8
2017-Jun-26 00:33N 35°14' W 007°58'413.0
2017-Jun-26 00:16N 35°11' W 008°01'1912.7
2017-Jun-25 22:45N 34°57' W 008°18'312.5
2017-Jun-25 22:30N 34°55' W 008°21'712.2
2017-Jun-25 21:58N 34°50' W 008°27'2111.9
2017-Jun-25 20:12N 34°35' W 008°44'211.6
2017-Jun-25 19:59N 34°34' W 008°46'611.8
2017-Jun-25 19:29N 34°29' W 008°51'811.9
2017-Jun-25 18:49N 34°24' W 008°58'411.6
2017-Jun-25 18:29N 34°21' W 009°01'611.6
2017-Jun-25 17:59N 34°17' W 009°06'611.7
2017-Jun-25 17:26N 34°12' W 009°12'511.3
2017-Jun-25 16:59N 34°08' W 009°16'611.0
2017-Jun-25 16:26N 34°04' W 009°21'510.7
2017-Jun-25 16:00N 34°01' W 009°25'510.8
2017-Jun-25 15:30N 33°57' W 009°29'10811.4
2017-Jun-25 06:02N 32°44' W 011°04'712.3
2017-Jun-25 05:28N 32°39' W 011°10'1112.2
2017-Jun-25 04:33N 32°32' W 011°20'011.8
2017-Jun-25 04:30N 32°31' W 011°20'811.7
2017-Jun-25 03:50N 32°26' W 011°27'6211.6
2017-Jun-24 22:30N 31°43' W 012°20'612.0
2017-Jun-24 22:00N 31°39' W 012°25'1212.3
2017-Jun-24 21:00N 31°30' W 012°35'612.6
2017-Jun-24 20:30N 31°25' W 012°40'612.7
2017-Jun-24 20:01N 31°21' W 012°45'612.7
2017-Jun-24 19:30N 31°16' W 012°50'612.5
2017-Jun-24 19:01N 31°12' W 012°55'612.3
2017-Jun-24 18:30N 31°08' W 013°01'611.9
2017-Jun-24 18:00N 31°04' W 013°06'611.7
2017-Jun-24 17:30N 30°60' W 013°11'611.8
2017-Jun-24 17:00N 30°56' W 013°16'611.7
2017-Jun-24 16:31N 30°52' W 013°21'611.7
2017-Jun-24 16:00N 30°47' W 013°25'611.6
2017-Jun-24 15:31N 30°43' W 013°30'611.2
2017-Jun-24 15:00N 30°39' W 013°35'1211.6
2017-Jun-24 14:00N 30°31' W 013°44'612.0
2017-Jun-24 13:30N 30°27' W 013°49'612.2
2017-Jun-24 13:00N 30°22' W 013°54'612.0
2017-Jun-24 12:30N 30°18' W 013°59'612.4
2017-Jun-24 12:00N 30°14' W 014°04'612.6
2017-Jun-24 11:30N 30°09' W 014°09'612.6
2017-Jun-24 11:00N 30°05' W 014°14'612.5
2017-Jun-24 10:30N 30°00' W 014°19'612.7
2017-Jun-24 10:00N 29°56' W 014°25'612.7
2017-Jun-24 09:30N 29°52' W 014°30'612.6
2017-Jun-24 09:00N 29°47' W 014°35'612.5
2017-Jun-24 08:30N 29°43' W 014°40'612.5
2017-Jun-24 08:00N 29°39' W 014°46'612.6
2017-Jun-24 07:30N 29°34' W 014°51'612.9
2017-Jun-24 07:00N 29°30' W 014°56'612.7
2017-Jun-24 06:31N 29°26' W 015°02'612.6
2017-Jun-24 06:01N 29°21' W 015°07'612.8
2017-Jun-24 05:30N 29°17' W 015°12'612.9
2017-Jun-24 05:00N 29°12' W 015°17'613.0
2017-Jun-24 04:31N 29°08' W 015°23'612.8
2017-Jun-24 04:00N 29°03' W 015°28'612.7
2017-Jun-24 03:31N 28°59' W 015°34'612.9
2017-Jun-24 03:01N 28°55' W 015°39'612.9
2017-Jun-24 02:31N 28°50' W 015°44'713.1
2017-Jun-24 02:00N 28°45' W 015°49'713.4
2017-Jun-24 01:31N 28°40' W 015°54'713.4
2017-Jun-24 01:01N 28°36' W 015°60'612.7
2017-Jun-24 00:30N 28°31' W 016°05'713.9
2017-Jun-24 00:00N 28°28' W 016°12'2 3.0
2017-Jun-23 23:29N 28°29' W 016°14'0 0.0
2017-Jun-23 22:59N 28°29' W 016°14'0 0.0
2017-Jun-23 22:29N 28°29' W 016°14'0 0.0
2017-Jun-23 21:59N 28°29' W 016°14'0 0.0
2017-Jun-23 21:29N 28°29' W 016°14'0 0.0
2017-Jun-23 20:59N 28°29' W 016°14'0 0.0
2017-Jun-23 20:20N 28°29' W 016°14'0 0.0
2017-Jun-23 19:50N 28°29' W 016°14'0 0.0
2017-Jun-23 19:20N 28°29' W 016°14'0 0.0
2017-Jun-23 18:57N 28°29' W 016°14'1 1.8
2017-Jun-23 18:30N 28°28' W 016°13'612.8
2017-Jun-23 18:00N 28°26' W 016°07'713.3
2017-Jun-23 17:30N 28°24' W 015°60'713.2
2017-Jun-23 17:00N 28°22' W 015°53'713.6
2017-Jun-23 16:30N 28°20' W 015°45'713.8
2017-Jun-23 16:00N 28°17' W 015°38'714.0
2017-Jun-23 15:30N 28°14' W 015°31'714.1
2017-Jun-23 15:00N 28°11' W 015°23'3 2.8
2017-Jun-23 13:59N 28°09' W 015°25'0 0.0
2017-Jun-23 13:05N 28°09' W 015°25'0 0.0
2017-Jun-23 12:50N 28°09' W 015°25'0 0.0
2017-Jun-23 12:20N 28°09' W 015°25'0 0.0
2017-Jun-23 11:53N 28°09' W 015°25'0 0.0
2017-Jun-23 11:23N 28°09' W 015°25'0 0.0
2017-Jun-23 10:53N 28°09' W 015°25'0 0.0
2017-Jun-23 10:23N 28°09' W 015°25'0 0.0
2017-Jun-23 09:53N 28°09' W 015°25'0 0.0
2017-Jun-23 09:26N 28°09' W 015°25'0 0.0
2017-Jun-23 08:56N 28°09' W 015°25'0 0.0
2017-Jun-23 08:26N 28°09' W 015°25'0 0.0
2017-Jun-23 07:56N 28°09' W 015°25'0 0.0
2017-Jun-23 07:30N 28°09' W 015°25'0 0.7
2017-Jun-23 07:00N 28°09' W 015°25'2 3.7
2017-Jun-23 06:30N 28°08' W 015°23'612.7
2017-Jun-23 06:00N 28°13' W 015°27'713.9
2017-Jun-23 05:30N 28°15' W 015°35'713.5
2017-Jun-23 05:00N 28°17' W 015°42'713.5
2017-Jun-23 04:30N 28°19' W 015°49'713.7
2017-Jun-23 04:00N 28°22' W 015°57'713.9
2017-Jun-23 03:30N 28°25' W 016°04'714.1
2017-Jun-23 03:00N 28°27' W 016°11'3 5.9
2017-Jun-23 02:30N 28°29' W 016°14'0 0.0
2017-Jun-23 01:59N 28°29' W 016°14'0 0.0
2017-Jun-23 01:29N 28°29' W 016°14'0 0.0
2017-Jun-23 00:59N 28°29' W 016°14'0 0.0
2017-Jun-23 00:17N 28°29' W 016°14'0 0.0
2017-Jun-22 23:29N 28°29' W 016°14'0 0.0
2017-Jun-22 22:50N 28°29' W 016°14'0 0.0
2017-Jun-22 22:30N 28°29' W 016°14'2 4.1
2017-Jun-22 22:00N 28°29' W 016°12'713.7
2017-Jun-22 21:27N 28°32' W 016°04'614.4
2017-Jun-22 21:00N 28°37' W 015°59'814.5
2017-Jun-22 20:27N 28°42' W 015°52'614.5
2017-Jun-22 20:00N 28°47' W 015°47'714.6
2017-Jun-22 19:30N 28°52' W 015°41'814.5
2017-Jun-22 18:58N 28°57' W 015°35'714.6
2017-Jun-22 18:30N 29°02' W 015°29'714.3
2017-Jun-22 18:00N 29°07' W 015°23'814.4
2017-Jun-22 17:28N 29°13' W 015°17'714.6
2017-Jun-22 17:00N 29°17' W 015°12'714.6
2017-Jun-22 16:30N 29°23' W 015°06'714.6
2017-Jun-22 16:00N 29°28' W 014°60'714.3
2017-Jun-22 15:30N 29°33' W 014°54'1314.0
2017-Jun-22 14:37N 29°41' W 014°44'1414.4
2017-Jun-22 13:38N 29°51' W 014°32'2214.4
2017-Jun-22 12:08N 30°07' W 014°14'214.0
2017-Jun-22 11:57N 30°08' W 014°12'713.9
2017-Jun-22 11:29N 30°13' W 014°07'714.1
2017-Jun-22 11:00N 30°17' W 014°01'3314.3
2017-Jun-22 08:42N 30°41' W 013°34'314.1
2017-Jun-22 08:30N 30°42' W 013°31'1214.2
2017-Jun-22 07:39N 30°51' W 013°21'914.2
2017-Jun-22 07:02N 30°57' W 013°14'114.3
2017-Jun-22 06:58N 30°58' W 013°13'714.3
2017-Jun-22 06:27N 31°03' W 013°07'1014.4
2017-Jun-22 05:46N 31°10' W 012°59'414.2
2017-Jun-22 05:30N 31°12' W 012°55'3914.3
2017-Jun-22 02:45N 31°40' W 012°23'7514.3
2017-Jun-21 21:32N 32°33' W 011°20'014.2
2017-Jun-21 21:30N 32°33' W 011°20'714.4
2017-Jun-21 21:00N 32°38' W 011°14'  
2017-Jun-19 00:36N 35°38' W 007°31'113.8
2017-Jun-19 00:30N 35°37' W 007°32'2113.4
2017-Jun-18 22:54N 35°21' W 007°51'513.3
2017-Jun-18 22:30N 35°18' W 007°56'813.5
2017-Jun-18 21:53N 35°12' W 008°03'2313.3
2017-Jun-18 20:10N 34°56' W 008°23'313.0
2017-Jun-18 19:55N 34°54' W 008°26'513.2
2017-Jun-18 19:30N 34°50' W 008°31'713.4
2017-Jun-18 19:00N 34°45' W 008°37'713.4
2017-Jun-18 18:30N 34°41' W 008°43'713.4
2017-Jun-18 18:00N 34°36' W 008°48'713.7
2017-Jun-18 17:30N 34°31' W 008°54'1313.7
2017-Jun-18 16:35N 34°22' W 009°05'37613.6
2017-Jun-17 13:00N 29°59' W 014°23'713.1
2017-Jun-17 12:30N 29°54' W 014°28'1213.0
2017-Jun-17 11:33N 29°46' W 014°39'2513.0
2017-Jun-17 09:39N 29°29' W 014°59'512.8
2017-Jun-17 09:14N 29°25' W 015°03'3513.0
2017-Jun-17 06:34N 29°00' W 015°31'212.8
2017-Jun-17 06:25N 28°59' W 015°33'513.0
2017-Jun-17 06:00N 28°55' W 015°37'613.1
2017-Jun-17 05:31N 28°51' W 015°42'713.3
2017-Jun-17 05:00N 28°46' W 015°48'713.1
2017-Jun-17 04:30N 28°42' W 015°54'612.8
2017-Jun-17 04:01N 28°37' W 015°58'612.5
2017-Jun-17 03:29N 28°33' W 016°04'612.7
2017-Jun-17 03:00N 28°29' W 016°09'4 0.9
2017-Jun-16 23:04N 28°29' W 016°14'0 0.0
2017-Jun-16 22:52N 28°29' W 016°14'0 0.0
2017-Jun-16 21:06N 28°29' W 016°14'0 2.3
2017-Jun-16 20:57N 28°29' W 016°14'510.7
2017-Jun-16 20:29N 28°27' W 016°09'713.7
2017-Jun-16 20:00N 28°24' W 016°02'713.5
2017-Jun-16 19:30N 28°22' W 015°54'713.6
2017-Jun-16 19:00N 28°20' W 015°47'713.7
2017-Jun-16 18:30N 28°18' W 015°40'713.6
2017-Jun-16 18:00N 28°16' W 015°32'713.2
2017-Jun-16 17:30N 28°13' W 015°25'510.5
2017-Jun-16 17:00N 28°08' W 015°23'2 3.2
2017-Jun-16 16:30N 28°09' W 015°25'0 0.0
2017-Jun-16 15:51N 28°09' W 015°25'0 0.0
2017-Jun-16 15:21N 28°09' W 015°25'0 0.0
2017-Jun-16 14:54N 28°09' W 015°25'0 0.0
2017-Jun-16 13:54N 28°09' W 015°25'0 0.0
2017-Jun-16 13:24N 28°09' W 015°25'0 0.0
2017-Jun-16 12:54N 28°09' W 015°25'0 0.0
2017-Jun-16 12:27N 28°09' W 015°25'0 0.0
2017-Jun-16 11:54N 28°09' W 015°25'0 0.0
2017-Jun-16 11:27N 28°09' W 015°25'0 0.0
2017-Jun-16 10:57N 28°09' W 015°25'0 0.0
2017-Jun-16 10:27N 28°09' W 015°25'0 0.0
2017-Jun-16 09:57N 28°09' W 015°25'0 0.0
2017-Jun-16 09:27N 28°09' W 015°25'2 0.4
2017-Jun-16 05:40N 28°07' W 015°24'2 9.5
2017-Jun-16 05:25N 28°08' W 015°22'612.7
2017-Jun-16 04:58N 28°12' W 015°17'713.1
2017-Jun-16 04:27N 28°17' W 015°12'  
Track history (hours):
 
Tides and Currents Weather Stations Pressure Air Temp Water Temp Dewpoint Dewpoint Depression Visibility Wind Speed Wind Dir Waves Ship Positions

Volcan De Teneguia

Last reported at 2017-Jun-26 04:20 UTC. Time now 2017-Jun-28 19:32 UTC.
Position N 35°47' W 007°16'.

Length 145 m; draft 5.2 m.

Type: Cargo ship. MMSI: 225317000.

Date/timePositionNaut miles runAvg speedWind from/ knotsBaromVisibWave heightAir tempDewpointWater temp
2017-Jun-26 04:20N 35°47' W 007°16'513.2
2017-Jun-26 03:58N 35°44' W 007°20'612.7
2017-Jun-26 03:30N 35°40' W 007°25'612.8
2017-Jun-26 03:00N 35°35' W 007°31'612.7
2017-Jun-26 02:30N 35°31' W 007°36'712.7
2017-Jun-26 01:58N 35°26' W 007°42'612.7
2017-Jun-26 01:28N 35°22' W 007°48'1212.8
2017-Jun-26 00:33N 35°14' W 007°58'413.0
2017-Jun-26 00:16N 35°11' W 008°01'1912.7
2017-Jun-25 22:45N 34°57' W 008°18'312.5
2017-Jun-25 22:30N 34°55' W 008°21'712.2
2017-Jun-25 21:58N 34°50' W 008°27'2111.9
2017-Jun-25 20:12N 34°35' W 008°44'211.6
2017-Jun-25 19:59N 34°34' W 008°46'611.8
2017-Jun-25 19:29N 34°29' W 008°51'811.9
2017-Jun-25 18:49N 34°24' W 008°58'411.6
2017-Jun-25 18:29N 34°21' W 009°01'611.6
2017-Jun-25 17:59N 34°17' W 009°06'611.7
2017-Jun-25 17:26N 34°12' W 009°12'511.3
2017-Jun-25 16:59N 34°08' W 009°16'611.0
2017-Jun-25 16:26N 34°04' W 009°21'510.7
2017-Jun-25 16:00N 34°01' W 009°25'510.8
2017-Jun-25 15:30N 33°57' W 009°29'10811.4
2017-Jun-25 06:02N 32°44' W 011°04'712.3
2017-Jun-25 05:28N 32°39' W 011°10'1112.2
2017-Jun-25 04:33N 32°32' W 011°20'011.8
2017-Jun-25 04:30N 32°31' W 011°20'811.7
2017-Jun-25 03:50N 32°26' W 011°27'6211.6
2017-Jun-24 22:30N 31°43' W 012°20'612.0
2017-Jun-24 22:00N 31°39' W 012°25'1212.3
2017-Jun-24 21:00N 31°30' W 012°35'612.6
2017-Jun-24 20:30N 31°25' W 012°40'612.7
2017-Jun-24 20:01N 31°21' W 012°45'612.7
2017-Jun-24 19:30N 31°16' W 012°50'612.5
2017-Jun-24 19:01N 31°12' W 012°55'612.3
2017-Jun-24 18:30N 31°08' W 013°01'611.9
2017-Jun-24 18:00N 31°04' W 013°06'611.7
2017-Jun-24 17:30N 30°60' W 013°11'611.8
2017-Jun-24 17:00N 30°56' W 013°16'611.7
2017-Jun-24 16:31N 30°52' W 013°21'611.7
2017-Jun-24 16:00N 30°47' W 013°25'611.6
2017-Jun-24 15:31N 30°43' W 013°30'611.2
2017-Jun-24 15:00N 30°39' W 013°35'1211.6
2017-Jun-24 14:00N 30°31' W 013°44'612.0
2017-Jun-24 13:30N 30°27' W 013°49'612.2
2017-Jun-24 13:00N 30°22' W 013°54'612.0
2017-Jun-24 12:30N 30°18' W 013°59'612.4
2017-Jun-24 12:00N 30°14' W 014°04'612.6
2017-Jun-24 11:30N 30°09' W 014°09'612.6
2017-Jun-24 11:00N 30°05' W 014°14'612.5
2017-Jun-24 10:30N 30°00' W 014°19'612.7
2017-Jun-24 10:00N 29°56' W 014°25'612.7
2017-Jun-24 09:30N 29°52' W 014°30'612.6
2017-Jun-24 09:00N 29°47' W 014°35'612.5
2017-Jun-24 08:30N 29°43' W 014°40'612.5
2017-Jun-24 08:00N 29°39' W 014°46'612.6
2017-Jun-24 07:30N 29°34' W 014°51'612.9
2017-Jun-24 07:00N 29°30' W 014°56'612.7
2017-Jun-24 06:31N 29°26' W 015°02'612.6
2017-Jun-24 06:01N 29°21' W 015°07'612.8
2017-Jun-24 05:30N 29°17' W 015°12'612.9
2017-Jun-24 05:00N 29°12' W 015°17'613.0
2017-Jun-24 04:31N 29°08' W 015°23'612.8
2017-Jun-24 04:00N 29°03' W 015°28'612.7
2017-Jun-24 03:31N 28°59' W 015°34'612.9
2017-Jun-24 03:01N 28°55' W 015°39'612.9
2017-Jun-24 02:31N 28°50' W 015°44'713.1
2017-Jun-24 02:00N 28°45' W 015°49'713.4
2017-Jun-24 01:31N 28°40' W 015°54'713.4
2017-Jun-24 01:01N 28°36' W 015°60'612.7
2017-Jun-24 00:30N 28°31' W 016°05'713.9
2017-Jun-24 00:00N 28°28' W 016°12'2 3.0
2017-Jun-23 23:29N 28°29' W 016°14'0 0.0
2017-Jun-23 22:59N 28°29' W 016°14'0 0.0
2017-Jun-23 22:29N 28°29' W 016°14'0 0.0
2017-Jun-23 21:59N 28°29' W 016°14'0 0.0
2017-Jun-23 21:29N 28°29' W 016°14'0 0.0
2017-Jun-23 20:59N 28°29' W 016°14'0 0.0
2017-Jun-23 20:20N 28°29' W 016°14'0 0.0
2017-Jun-23 19:50N 28°29' W 016°14'0 0.0
2017-Jun-23 19:20N 28°29' W 016°14'0 0.0
2017-Jun-23 18:57N 28°29' W 016°14'1 1.8
2017-Jun-23 18:30N 28°28' W 016°13'612.8
2017-Jun-23 18:00N 28°26' W 016°07'713.3
2017-Jun-23 17:30N 28°24' W 015°60'713.2
2017-Jun-23 17:00N 28°22' W 015°53'713.6
2017-Jun-23 16:30N 28°20' W 015°45'713.8
2017-Jun-23 16:00N 28°17' W 015°38'714.0
2017-Jun-23 15:30N 28°14' W 015°31'714.1
2017-Jun-23 15:00N 28°11' W 015°23'3 2.8
2017-Jun-23 13:59N 28°09' W 015°25'0 0.0
2017-Jun-23 13:05N 28°09' W 015°25'0 0.0
2017-Jun-23 12:50N 28°09' W 015°25'0 0.0
2017-Jun-23 12:20N 28°09' W 015°25'0 0.0
2017-Jun-23 11:53N 28°09' W 015°25'0 0.0
2017-Jun-23 11:23N 28°09' W 015°25'0 0.0
2017-Jun-23 10:53N 28°09' W 015°25'0 0.0
2017-Jun-23 10:23N 28°09' W 015°25'0 0.0
2017-Jun-23 09:53N 28°09' W 015°25'0 0.0
2017-Jun-23 09:26N 28°09' W 015°25'0 0.0
2017-Jun-23 08:56N 28°09' W 015°25'0 0.0
2017-Jun-23 08:26N 28°09' W 015°25'0 0.0
2017-Jun-23 07:56N 28°09' W 015°25'0 0.0
2017-Jun-23 07:30N 28°09' W 015°25'0 0.7
2017-Jun-23 07:00N 28°09' W 015°25'2 3.7
2017-Jun-23 06:30N 28°08' W 015°23'612.7
2017-Jun-23 06:00N 28°13' W 015°27'713.9
2017-Jun-23 05:30N 28°15' W 015°35'713.5
2017-Jun-23 05:00N 28°17' W 015°42'713.5
2017-Jun-23 04:30N 28°19' W 015°49'713.7
2017-Jun-23 04:00N 28°22' W 015°57'713.9
2017-Jun-23 03:30N 28°25' W 016°04'714.1
2017-Jun-23 03:00N 28°27' W 016°11'3 5.9
2017-Jun-23 02:30N 28°29' W 016°14'0 0.0
2017-Jun-23 01:59N 28°29' W 016°14'0 0.0
2017-Jun-23 01:29N 28°29' W 016°14'0 0.0
2017-Jun-23 00:59N 28°29' W 016°14'0 0.0
2017-Jun-23 00:17N 28°29' W 016°14'0 0.0
2017-Jun-22 23:29N 28°29' W 016°14'0 0.0
2017-Jun-22 22:50N 28°29' W 016°14'0 0.0
2017-Jun-22 22:30N 28°29' W 016°14'2 4.1
2017-Jun-22 22:00N 28°29' W 016°12'713.7
2017-Jun-22 21:27N 28°32' W 016°04'614.4
2017-Jun-22 21:00N 28°37' W 015°59'814.5
2017-Jun-22 20:27N 28°42' W 015°52'614.5
2017-Jun-22 20:00N 28°47' W 015°47'714.6
2017-Jun-22 19:30N 28°52' W 015°41'814.5
2017-Jun-22 18:58N 28°57' W 015°35'714.6
2017-Jun-22 18:30N 29°02' W 015°29'714.3
2017-Jun-22 18:00N 29°07' W 015°23'814.4
2017-Jun-22 17:28N 29°13' W 015°17'714.6
2017-Jun-22 17:00N 29°17' W 015°12'714.6
2017-Jun-22 16:30N 29°23' W 015°06'714.6
2017-Jun-22 16:00N 29°28' W 014°60'714.3
2017-Jun-22 15:30N 29°33' W 014°54'1314.0
2017-Jun-22 14:37N 29°41' W 014°44'1414.4
2017-Jun-22 13:38N 29°51' W 014°32'2214.4
2017-Jun-22 12:08N 30°07' W 014°14'214.0
2017-Jun-22 11:57N 30°08' W 014°12'713.9
2017-Jun-22 11:29N 30°13' W 014°07'714.1
2017-Jun-22 11:00N 30°17' W 014°01'3314.3
2017-Jun-22 08:42N 30°41' W 013°34'314.1
2017-Jun-22 08:30N 30°42' W 013°31'1214.2
2017-Jun-22 07:39N 30°51' W 013°21'914.2
2017-Jun-22 07:02N 30°57' W 013°14'114.3
2017-Jun-22 06:58N 30°58' W 013°13'714.3
2017-Jun-22 06:27N 31°03' W 013°07'1014.4
2017-Jun-22 05:46N 31°10' W 012°59'414.2
2017-Jun-22 05:30N 31°12' W 012°55'3914.3
2017-Jun-22 02:45N 31°40' W 012°23'7514.3
2017-Jun-21 21:32N 32°33' W 011°20'014.2
2017-Jun-21 21:30N 32°33' W 011°20'714.4
2017-Jun-21 21:00N 32°38' W 011°14'  
2017-Jun-19 00:36N 35°38' W 007°31'113.8
2017-Jun-19 00:30N 35°37' W 007°32'2113.4
2017-Jun-18 22:54N 35°21' W 007°51'513.3
2017-Jun-18 22:30N 35°18' W 007°56'813.5
2017-Jun-18 21:53N 35°12' W 008°03'2313.3
2017-Jun-18 20:10N 34°56' W 008°23'313.0
2017-Jun-18 19:55N 34°54' W 008°26'513.2
2017-Jun-18 19:30N 34°50' W 008°31'713.4
2017-Jun-18 19:00N 34°45' W 008°37'713.4
2017-Jun-18 18:30N 34°41' W 008°43'713.4
2017-Jun-18 18:00N 34°36' W 008°48'713.7
2017-Jun-18 17:30N 34°31' W 008°54'1313.7
2017-Jun-18 16:35N 34°22' W 009°05'37613.6
2017-Jun-17 13:00N 29°59' W 014°23'713.1
2017-Jun-17 12:30N 29°54' W 014°28'1213.0
2017-Jun-17 11:33N 29°46' W 014°39'2513.0
2017-Jun-17 09:39N 29°29' W 014°59'512.8
2017-Jun-17 09:14N 29°25' W 015°03'3513.0
2017-Jun-17 06:34N 29°00' W 015°31'212.8
2017-Jun-17 06:25N 28°59' W 015°33'513.0
2017-Jun-17 06:00N 28°55' W 015°37'613.1
2017-Jun-17 05:31N 28°51' W 015°42'713.3
2017-Jun-17 05:00N 28°46' W 015°48'713.1
2017-Jun-17 04:30N 28°42' W 015°54'612.8
2017-Jun-17 04:01N 28°37' W 015°58'612.5
2017-Jun-17 03:29N 28°33' W 016°04'612.7
2017-Jun-17 03:00N 28°29' W 016°09'4 0.9
2017-Jun-16 23:04N 28°29' W 016°14'0 0.0
2017-Jun-16 22:52N 28°29' W 016°14'0 0.0
2017-Jun-16 21:06N 28°29' W 016°14'0 2.3
2017-Jun-16 20:57N 28°29' W 016°14'510.7
2017-Jun-16 20:29N 28°27' W 016°09'713.7
2017-Jun-16 20:00N 28°24' W 016°02'713.5
2017-Jun-16 19:30N 28°22' W 015°54'713.6
2017-Jun-16 19:00N 28°20' W 015°47'713.7
2017-Jun-16 18:30N 28°18' W 015°40'713.6
2017-Jun-16 18:00N 28°16' W 015°32'713.2
2017-Jun-16 17:30N 28°13' W 015°25'510.5
2017-Jun-16 17:00N 28°08' W 015°23'2 3.2
2017-Jun-16 16:30N 28°09' W 015°25'0 0.0
2017-Jun-16 15:51N 28°09' W 015°25'0 0.0
2017-Jun-16 15:21N 28°09' W 015°25'0 0.0
2017-Jun-16 14:54N 28°09' W 015°25'0 0.0
2017-Jun-16 13:54N 28°09' W 015°25'0 0.0
2017-Jun-16 13:24N 28°09' W 015°25'0 0.0
2017-Jun-16 12:54N 28°09' W 015°25'0 0.0
2017-Jun-16 12:27N 28°09' W 015°25'0 0.0
2017-Jun-16 11:54N 28°09' W 015°25'0 0.0
2017-Jun-16 11:27N 28°09' W 015°25'0 0.0
2017-Jun-16 10:57N 28°09' W 015°25'0 0.0
2017-Jun-16 10:27N 28°09' W 015°25'0 0.0
2017-Jun-16 09:57N 28°09' W 015°25'0 0.0
2017-Jun-16 09:27N 28°09' W 015°25'2 0.4
2017-Jun-16 05:40N 28°07' W 015°24'2 9.5
2017-Jun-16 05:25N 28°08' W 015°22'612.7
2017-Jun-16 04:58N 28°12' W 015°17'713.1
2017-Jun-16 04:27N 28°17' W 015°12'  

Dump ship's entire track history